createdAt,value
2023-04-16T00:01:52.749Z,68.24
2023-04-16T00:04:20.741Z,68.02
2023-04-16T00:06:56.747Z,67.76
2023-04-16T00:09:23.595Z,68.01
2023-04-16T00:11:50.514Z,67.11
2023-04-16T00:14:17.478Z,66.66
2023-04-16T00:16:47.482Z,67.29
2023-04-16T00:19:21.784Z,66.75
2023-04-16T00:21:56.857Z,65.02
2023-04-16T00:24:23.835Z,64.46
2023-04-16T00:26:51.043Z,65.16
2023-04-16T00:29:17.948Z,66.27
2023-04-16T00:31:44.974Z,65.07
2023-04-16T00:34:18.277Z,63.97
2023-04-16T00:37:02.268Z,64.79
2023-04-16T00:39:29.259Z,66.21
2023-04-16T00:41:56.233Z,66.96
2023-04-16T00:44:26.044Z,67.51
2023-04-16T00:46:55.847Z,68.43
2023-04-16T00:49:29.656Z,67.83
2023-04-16T00:52:05.142Z,67.96
2023-04-16T00:54:36.111Z,67.23
2023-04-16T00:57:03.561Z,68.00
2023-04-16T00:59:30.491Z,68.01
2023-04-16T01:01:57.526Z,68.23
2023-04-16T01:04:24.830Z,67.62
2023-04-16T01:06:51.892Z,68.07
2023-04-16T01:09:20.756Z,68.29
2023-04-16T01:11:50.492Z,68.56
2023-04-16T01:14:21.483Z,68.38
2023-04-16T01:16:50.801Z,68.92
2023-04-16T01:19:17.695Z,69.42
2023-04-16T01:21:54.538Z,69.94
2023-04-16T01:25:07.805Z,69.53
2023-04-16T01:27:39.889Z,69.67
2023-04-16T01:30:43.504Z,69.54
2023-04-16T01:33:24.556Z,70.19
2023-04-16T01:36:00.616Z,70.58
2023-04-16T01:38:30.602Z,70.44
2023-04-16T01:41:11.947Z,70.57
2023-04-16T01:43:43.200Z,69.65
2023-04-16T01:46:27.631Z,69.31
2023-04-16T01:49:01.153Z,70.23
2023-04-16T01:51:39.609Z,70.10
2023-04-16T01:54:06.470Z,69.99
2023-04-16T01:56:53.700Z,70.42
2023-04-16T01:59:21.024Z,70.52
2023-04-16T02:01:48.044Z,71.18
2023-04-16T02:04:18.036Z,70.62
2023-04-16T02:06:51.167Z,70.15
2023-04-16T02:09:21.787Z,70.46
2023-04-16T02:11:48.911Z,69.95
2023-04-16T02:14:16.018Z,70.89
2023-04-16T02:16:51.540Z,70.35
2023-04-16T02:19:27.653Z,70.74
2023-04-16T02:22:04.327Z,71.38
2023-04-16T02:24:31.196Z,71.06
2023-04-16T02:26:58.516Z,71.67
2023-04-16T02:29:30.183Z,71.26
2023-04-16T02:31:57.762Z,70.78
2023-04-16T02:34:25.946Z,70.57
2023-04-16T02:36:52.990Z,71.07
2023-04-16T02:39:20.349Z,71.14
2023-04-16T02:41:47.690Z,71.37
2023-04-16T02:44:14.784Z,71.16
2023-04-16T02:46:41.795Z,71.32
2023-04-16T02:49:11.948Z,71.09
2023-04-16T02:51:39.089Z,70.63
2023-04-16T02:54:08.988Z,71.02
2023-04-16T02:56:35.856Z,71.29
2023-04-16T02:59:11.843Z,71.74
2023-04-16T03:01:42.549Z,71.35
2023-04-16T03:04:09.603Z,71.24
2023-04-16T03:06:40.749Z,70.72
2023-04-16T03:09:08.963Z,70.40
2023-04-16T03:11:36.457Z,70.64
2023-04-16T03:14:03.571Z,70.26
2023-04-16T03:16:37.507Z,70.32
2023-04-16T03:19:08.249Z,71.55
2023-04-16T03:21:38.104Z,71.50
2023-04-16T03:24:08.896Z,71.36
2023-04-16T03:26:37.067Z,71.00
2023-04-16T03:29:04.048Z,72.03
2023-04-16T03:31:31.262Z,71.45
2023-04-16T03:33:58.278Z,72.03
2023-04-16T03:36:26.821Z,71.59
2023-04-16T03:38:56.065Z,71.88
2023-04-16T03:41:23.100Z,71.26
2023-04-16T03:43:50.792Z,70.89
2023-04-16T03:46:21.239Z,71.25
2023-04-16T03:48:50.763Z,70.60
2023-04-16T03:51:20.198Z,70.48
2023-04-16T03:53:47.118Z,70.42
2023-04-16T03:56:13.985Z,70.09
2023-04-16T03:58:44.019Z,70.53
2023-04-16T04:01:10.990Z,70.56
2023-04-16T04:03:38.183Z,70.65
2023-04-16T04:06:09.454Z,70.56
2023-04-16T04:08:36.817Z,70.11
2023-04-16T04:11:03.778Z,70.30
2023-04-16T04:13:30.742Z,71.25
2023-04-16T04:16:00.721Z,70.35
2023-04-16T04:18:27.652Z,69.59
2023-04-16T04:20:54.562Z,69.51
2023-04-16T04:23:21.751Z,69.45
2023-04-16T04:25:48.660Z,69.75
2023-04-16T04:28:15.941Z,69.62
2023-04-16T04:30:42.849Z,69.83
2023-04-16T04:33:15.359Z,70.10
2023-04-16T04:35:58.645Z,70.09
2023-04-16T04:38:25.810Z,69.95
2023-04-16T04:40:55.841Z,69.80
2023-04-16T04:43:29.192Z,70.11
2023-04-16T04:45:56.611Z,70.17
2023-04-16T04:48:26.908Z,69.95
2023-04-16T04:50:56.734Z,69.86
2023-04-16T04:53:23.754Z,69.09
2023-04-16T04:55:54.228Z,69.68
2023-04-16T04:58:24.513Z,68.76
2023-04-16T05:00:51.666Z,68.35
2023-04-16T05:03:22.230Z,68.30
2023-04-16T05:05:49.299Z,67.92
2023-04-16T05:08:16.431Z,68.80
2023-04-16T05:10:47.248Z,68.22
2023-04-16T05:13:14.337Z,67.80
2023-04-16T05:15:41.527Z,68.16
2023-04-16T05:18:11.101Z,68.03
2023-04-16T05:20:44.685Z,67.35
2023-04-16T05:23:11.759Z,68.05
2023-04-16T05:25:39.510Z,68.15
2023-04-16T05:28:06.409Z,68.05
2023-04-16T05:30:34.004Z,68.64
2023-04-16T05:33:06.644Z,68.57
2023-04-16T05:35:44.356Z,68.49
2023-04-16T05:38:20.532Z,67.71
2023-04-16T05:40:49.198Z,67.27
2023-04-16T05:45:59.151Z,67.52
2023-04-16T05:48:26.206Z,66.72
2023-04-16T05:50:55.059Z,66.72
2023-04-16T05:53:25.381Z,66.37
2023-04-16T05:55:55.336Z,66.46
2023-04-16T05:58:25.431Z,66.65
2023-04-16T06:00:52.447Z,65.98
2023-04-16T06:03:22.313Z,65.54
2023-04-16T06:05:57.100Z,65.17
2023-04-16T06:08:24.161Z,65.62
2023-04-16T06:10:52.898Z,65.68
2023-04-16T06:13:22.856Z,65.48
2023-04-16T06:15:49.820Z,64.72
2023-04-16T06:18:19.653Z,65.09
2023-04-16T06:20:46.697Z,64.86
2023-04-16T06:23:13.696Z,65.93
2023-04-16T06:25:41.077Z,65.45
2023-04-16T06:28:08.330Z,65.31
2023-04-16T06:30:35.909Z,65.07
2023-04-16T06:33:05.985Z,64.98
2023-04-16T06:35:36.226Z,64.34
2023-04-16T06:38:06.160Z,63.99
2023-04-16T06:40:44.319Z,64.27
2023-04-16T06:43:11.911Z,63.46
2023-04-16T06:45:38.962Z,63.10
2023-04-16T06:48:11.063Z,63.02
2023-04-16T06:50:48.400Z,61.01
2023-04-16T06:53:16.553Z,61.65
2023-04-16T06:55:43.442Z,61.09
2023-04-16T06:58:19.412Z,60.73
2023-04-16T07:00:46.632Z,60.74
2023-04-16T07:03:14.934Z,60.97
2023-04-16T07:05:42.958Z,60.81
2023-04-16T07:08:13.774Z,58.53
2023-04-16T07:10:41.133Z,59.06
2023-04-16T07:13:11.545Z,58.61
2023-04-16T07:15:41.621Z,59.27
2023-04-16T07:18:08.617Z,59.66
2023-04-16T07:20:36.533Z,58.18
2023-04-16T07:23:04.769Z,57.51
2023-04-16T07:25:36.273Z,57.97
2023-04-16T07:28:06.980Z,57.49
2023-04-16T07:30:37.327Z,58.30
2023-04-16T07:33:17.726Z,57.30
2023-04-16T07:35:48.171Z,57.78
2023-04-16T07:38:24.056Z,59.08
2023-04-16T07:40:52.877Z,56.19
2023-04-16T07:46:14.911Z,55.28
2023-04-16T07:48:41.812Z,55.62
2023-04-16T07:51:08.925Z,55.66
2023-04-16T07:53:36.118Z,52.87
2023-04-16T07:56:09.763Z,54.57
2023-04-16T07:58:39.820Z,55.65
2023-04-16T08:01:12.251Z,55.44
2023-04-16T08:03:50.429Z,54.30
2023-04-16T08:06:17.477Z,53.93
2023-04-16T08:08:50.335Z,55.96
2023-04-16T08:11:17.559Z,54.99
2023-04-16T08:13:50.549Z,53.58
2023-04-16T08:16:26.848Z,54.70
2023-04-16T08:18:54.064Z,55.38
2023-04-16T08:21:21.098Z,54.89
2023-04-16T08:23:56.615Z,53.79
2023-04-16T08:26:26.706Z,54.62
2023-04-16T08:29:02.406Z,54.54
2023-04-16T08:31:29.659Z,54.87
2023-04-16T08:33:56.632Z,55.50
2023-04-16T08:36:25.579Z,52.93
2023-04-16T08:39:00.565Z,53.45
2023-04-16T08:41:39.147Z,53.05
2023-04-16T08:44:14.408Z,51.31
2023-04-16T08:46:42.056Z,52.57
2023-04-16T08:49:19.956Z,51.54
2023-04-16T08:51:58.129Z,50.72
2023-04-16T08:55:04.622Z,53.34
2023-04-16T08:57:40.418Z,51.44
2023-04-16T09:00:09.358Z,51.82
2023-04-16T09:02:41.863Z,52.37
2023-04-16T09:05:21.248Z,52.14
2023-04-16T09:07:57.500Z,52.35
2023-04-16T09:10:28.979Z,52.69
2023-04-16T09:12:57.351Z,50.37
2023-04-16T09:15:34.977Z,52.43
2023-04-16T09:18:12.498Z,52.56
2023-04-16T09:20:45.864Z,50.05
2023-04-16T09:23:12.878Z,50.78
2023-04-16T09:25:40.623Z,51.27
2023-04-16T09:28:11.277Z,50.88
2023-04-16T09:30:38.378Z,49.31
2023-04-16T09:33:23.208Z,50.38
2023-04-16T09:35:52.777Z,51.17
2023-04-16T09:38:24.730Z,48.71
2023-04-16T09:41:15.436Z,48.64
2023-04-16T09:43:49.502Z,50.52
2023-04-16T09:46:20.154Z,50.97
2023-04-16T09:48:51.740Z,50.30
2023-04-16T09:51:24.303Z,48.37
2023-04-16T09:53:55.358Z,49.29
2023-04-16T09:56:31.568Z,49.24
2023-04-16T09:59:00.918Z,47.55
2023-04-16T10:01:33.689Z,47.71
2023-04-16T10:04:00.974Z,48.12
2023-04-16T10:06:29.605Z,47.18
2023-04-16T10:08:57.466Z,47.06
2023-04-16T10:11:27.570Z,46.92
2023-04-16T10:13:57.556Z,46.71
2023-04-16T10:16:26.405Z,47.17
2023-04-16T10:18:56.820Z,46.49
2023-04-16T10:21:34.440Z,45.77
2023-04-16T10:24:10.044Z,45.87
2023-04-16T10:27:05.578Z,44.46
2023-04-16T10:29:43.821Z,45.36
2023-04-16T10:32:17.558Z,46.31
2023-04-16T10:34:55.412Z,46.32
2023-04-16T10:37:31.489Z,46.63
2023-04-16T10:40:04.300Z,45.75
2023-04-16T10:42:34.907Z,46.19
2023-04-16T10:45:01.795Z,46.06
2023-04-16T10:47:29.823Z,45.76
2023-04-16T10:50:01.894Z,46.32
2023-04-16T10:52:30.091Z,45.29
2023-04-16T10:54:59.781Z,45.13
2023-04-16T10:57:32.159Z,45.62
2023-04-16T11:00:02.274Z,45.20
2023-04-16T11:02:30.275Z,45.25
2023-04-16T11:04:58.568Z,44.13
2023-04-16T11:07:36.262Z,44.19
2023-04-16T11:10:07.734Z,44.45
2023-04-16T11:12:46.345Z,45.16
2023-04-16T11:15:17.600Z,44.02
2023-04-16T11:17:53.069Z,44.81
2023-04-16T11:20:33.399Z,45.06
2023-04-16T11:23:00.513Z,45.13
2023-04-16T11:25:34.496Z,43.32
2023-04-16T11:28:06.008Z,42.74
2023-04-16T11:30:36.839Z,43.34
2023-04-16T11:33:16.972Z,42.46
2023-04-16T11:35:46.254Z,40.68
2023-04-16T11:38:18.716Z,41.84
2023-04-16T11:40:46.588Z,42.03
2023-04-16T11:43:21.921Z,41.13
2023-04-16T11:46:20.033Z,41.61
2023-04-16T11:48:54.616Z,41.82
2023-04-16T11:51:24.584Z,41.42
2023-04-16T11:53:56.554Z,41.60
2023-04-16T11:56:31.324Z,41.19
2023-04-16T11:59:17.658Z,40.78
2023-04-16T12:01:51.767Z,41.12
2023-04-16T12:04:35.234Z,39.64
2023-04-16T12:07:10.390Z,40.44
2023-04-16T12:09:40.699Z,39.28
2023-04-16T12:12:26.618Z,39.22
2023-04-16T12:14:55.964Z,38.88
2023-04-16T12:17:23.712Z,39.38
2023-04-16T12:20:03.003Z,38.75
2023-04-16T12:22:37.439Z,39.77
2023-04-16T12:25:13.298Z,38.83
2023-04-16T12:27:54.240Z,38.98
2023-04-16T12:30:25.185Z,37.88
2023-04-16T12:33:26.938Z,36.48
2023-04-16T12:35:59.877Z,36.64
2023-04-16T12:38:28.199Z,37.00
2023-04-16T12:41:09.534Z,39.16
2023-04-16T12:43:43.426Z,39.37
2023-04-16T12:46:14.252Z,39.01
2023-04-16T12:48:45.429Z,38.05
2023-04-16T12:51:21.245Z,37.88
2023-04-16T12:53:51.996Z,36.88
2023-04-16T12:56:19.028Z,38.28
2023-04-16T12:58:50.569Z,38.37
2023-04-16T13:01:23.645Z,37.93
2023-04-16T13:03:50.987Z,38.52
2023-04-16T13:06:18.386Z,38.10
2023-04-16T13:08:45.807Z,36.31
2023-04-16T13:11:13.346Z,37.46
2023-04-16T13:13:40.243Z,35.19
2023-04-16T13:16:09.008Z,39.08
2023-04-16T13:18:39.906Z,38.84
2023-04-16T13:21:07.057Z,38.46
2023-04-16T13:23:35.311Z,38.14
2023-04-16T13:26:17.096Z,38.52
2023-04-16T13:28:44.274Z,39.22
2023-04-16T13:31:18.171Z,39.26
2023-04-16T13:33:46.542Z,39.02
2023-04-16T13:36:21.025Z,38.88
2023-04-16T13:38:57.253Z,39.67
2023-04-16T13:41:24.471Z,38.60
2023-04-16T13:43:51.665Z,39.83
2023-04-16T13:46:19.471Z,40.41
2023-04-16T13:48:50.508Z,40.57
2023-04-16T13:51:17.383Z,39.24
2023-04-16T13:53:44.644Z,40.36
2023-04-16T13:56:12.644Z,40.26
2023-04-16T13:58:42.522Z,38.82
2023-04-16T14:01:19.150Z,39.24
2023-04-16T14:03:46.462Z,39.31
2023-04-16T14:06:14.174Z,39.96
2023-04-16T14:08:42.706Z,39.74
2023-04-16T14:11:12.006Z,39.44
2023-04-16T14:13:57.776Z,39.93
2023-04-16T14:16:27.736Z,40.21
2023-04-16T14:18:54.890Z,40.45
2023-04-16T14:21:27.452Z,40.89
2023-04-16T14:23:54.610Z,39.96
2023-04-16T14:26:24.219Z,40.24
2023-04-16T14:28:51.454Z,38.38
2023-04-16T14:31:18.564Z,39.29
2023-04-16T14:33:46.224Z,39.57
2023-04-16T14:36:13.456Z,39.32
2023-04-16T14:38:43.027Z,38.50
2023-04-16T14:41:13.176Z,39.93
2023-04-16T14:43:44.712Z,39.82
2023-04-16T14:46:23.289Z,40.06
2023-04-16T14:49:02.705Z,40.81
2023-04-16T14:51:29.907Z,40.26
2023-04-16T14:54:03.699Z,40.63
2023-04-16T14:56:42.224Z,40.46
2023-04-16T14:59:18.978Z,40.62
2023-04-16T15:01:46.661Z,40.67
2023-04-16T15:04:13.921Z,40.81
2023-04-16T15:06:46.647Z,41.05
2023-04-16T15:09:13.772Z,40.39
2023-04-16T15:11:42.523Z,41.18
2023-04-16T15:14:09.907Z,41.11
2023-04-16T15:16:37.288Z,41.95
2023-04-16T15:19:05.397Z,40.21
2023-04-16T15:21:35.768Z,40.71
2023-04-16T15:24:12.762Z,39.23
2023-04-16T15:26:41.668Z,40.46
2023-04-16T15:29:08.756Z,39.99
2023-04-16T15:31:38.687Z,39.53
2023-04-16T15:34:05.846Z,39.99
2023-04-16T15:36:40.430Z,39.64
2023-04-16T15:39:10.327Z,40.89
2023-04-16T15:41:53.572Z,40.72
2023-04-16T15:44:32.505Z,41.27
2023-04-16T15:47:02.522Z,41.49
2023-04-16T15:49:29.594Z,41.59
2023-04-16T15:52:02.860Z,41.56
2023-04-16T15:54:32.119Z,41.43
2023-04-16T15:57:01.229Z,41.71
2023-04-16T15:59:40.703Z,41.47
2023-04-16T16:02:12.394Z,40.81
2023-04-16T16:04:46.436Z,40.34
2023-04-16T16:07:21.998Z,41.23
2023-04-16T16:09:49.014Z,41.04
2023-04-16T16:12:19.171Z,40.93
2023-04-16T16:14:46.072Z,41.31
2023-04-16T16:17:14.072Z,41.10
2023-04-16T16:19:41.302Z,41.82
2023-04-16T16:22:10.491Z,41.90
2023-04-16T16:24:37.674Z,42.20
2023-04-16T16:27:08.297Z,42.15
2023-04-16T16:29:45.680Z,42.08
2023-04-16T16:32:16.179Z,41.35
2023-04-16T16:34:54.483Z,40.12
2023-04-16T16:37:24.732Z,41.91
2023-04-16T16:39:59.652Z,42.10
2023-04-16T16:42:27.377Z,42.40
2023-04-16T16:44:57.441Z,42.54
2023-04-16T16:47:25.255Z,42.49
2023-04-16T16:49:52.698Z,42.56
2023-04-16T16:52:27.116Z,42.57
2023-04-16T16:54:54.891Z,42.34
2023-04-16T16:57:30.113Z,42.00
2023-04-16T17:02:43.952Z,42.27
2023-04-16T17:05:11.428Z,41.87
2023-04-16T17:07:39.380Z,42.22
2023-04-16T17:10:07.356Z,42.21
2023-04-16T17:12:34.497Z,42.34
2023-04-16T17:15:05.056Z,42.20
2023-04-16T17:17:33.336Z,42.50
2023-04-16T17:20:07.716Z,42.51
2023-04-16T17:22:36.226Z,42.80
2023-04-16T17:25:08.166Z,42.90
2023-04-16T17:27:36.932Z,42.74
2023-04-16T17:30:06.161Z,42.37
2023-04-16T17:35:25.197Z,42.79
2023-04-16T17:37:55.764Z,42.47
2023-04-16T17:40:24.765Z,42.63
2023-04-16T17:43:06.835Z,42.89
2023-04-16T17:45:44.888Z,43.31
2023-04-16T17:48:12.892Z,43.41
2023-04-16T17:50:50.285Z,43.52
2023-04-16T17:53:17.616Z,43.66
2023-04-16T17:55:57.855Z,43.92
2023-04-16T17:58:26.706Z,43.06
2023-04-16T18:00:55.272Z,43.81
2023-04-16T18:03:22.941Z,44.29
2023-04-16T18:05:51.925Z,43.41
2023-04-16T18:08:18.953Z,44.26
2023-04-16T18:10:49.572Z,42.67
2023-04-16T18:13:19.122Z,44.05
2023-04-16T18:15:46.288Z,44.28
2023-04-16T18:18:21.024Z,43.45
2023-04-16T18:21:07.180Z,44.41
2023-04-16T18:23:35.281Z,44.34
2023-04-16T18:26:03.814Z,44.53
2023-04-16T18:28:30.963Z,44.57
2023-04-16T18:31:03.199Z,45.10
2023-04-16T18:36:03.077Z,45.13
2023-04-16T18:38:34.936Z,45.10
2023-04-16T18:41:07.893Z,45.22
2023-04-16T18:43:34.967Z,45.16
2023-04-16T18:46:04.996Z,45.03
2023-04-16T18:48:38.665Z,45.34
2023-04-16T18:51:08.755Z,45.27
2023-04-16T18:53:35.860Z,45.69
2023-04-16T18:56:03.150Z,45.15
2023-04-16T18:58:34.452Z,45.43
2023-04-16T19:01:04.911Z,45.63
2023-04-16T19:03:37.114Z,45.93
2023-04-16T19:06:08.403Z,46.15
2023-04-16T19:08:43.280Z,46.09
2023-04-16T19:11:22.972Z,46.10
2023-04-16T19:13:50.227Z,46.47
2023-04-16T19:16:23.335Z,46.06
2023-04-16T19:18:54.066Z,47.07
2023-04-16T19:21:22.560Z,46.83
2023-04-16T19:23:52.150Z,47.16
2023-04-16T19:26:22.564Z,47.64
2023-04-16T19:28:50.914Z,46.93
2023-04-16T19:34:02.507Z,47.55
2023-04-16T19:36:31.748Z,47.85
2023-04-16T19:39:02.453Z,48.51
2023-04-16T19:41:32.308Z,48.14
2023-04-16T19:44:03.334Z,48.40
2023-04-16T19:46:32.719Z,49.14
2023-04-16T19:49:06.163Z,49.16
2023-04-16T19:51:36.779Z,48.15
2023-04-16T19:54:07.038Z,48.31
2023-04-16T19:56:34.304Z,48.20
2023-04-16T19:59:12.353Z,48.74
2023-04-16T20:01:39.965Z,48.89
2023-04-16T20:04:07.843Z,49.47
2023-04-16T20:06:35.184Z,49.63
2023-04-16T20:09:02.370Z,49.71
2023-04-16T20:11:35.437Z,49.79
2023-04-16T20:14:05.269Z,49.95
2023-04-16T20:16:41.124Z,49.45
2023-04-16T20:19:09.137Z,49.45
2023-04-16T20:21:38.555Z,49.66
2023-04-16T20:24:08.135Z,50.00
2023-04-16T20:26:38.241Z,50.04
2023-04-16T20:29:05.275Z,49.95
2023-04-16T20:31:32.427Z,50.26
2023-04-16T20:34:04.993Z,49.76
2023-04-16T20:36:32.285Z,49.86
2023-04-16T20:39:11.353Z,49.03
2023-04-16T20:41:44.206Z,49.56
2023-04-16T20:44:20.429Z,49.58
2023-04-16T20:46:50.602Z,49.44
2023-04-16T20:49:18.786Z,50.07
2023-04-16T20:51:54.087Z,49.41
2023-04-16T20:54:21.333Z,49.12
2023-04-16T20:56:54.601Z,49.27
2023-04-16T20:59:24.210Z,50.45
2023-04-16T21:01:52.898Z,51.00
2023-04-16T21:04:29.802Z,51.24
2023-04-16T21:06:57.128Z,52.13
2023-04-16T21:09:26.585Z,52.51
2023-04-16T21:11:57.038Z,52.18
2023-04-16T21:14:24.259Z,52.64
2023-04-16T21:17:00.882Z,53.39
2023-04-16T21:19:32.042Z,53.60
2023-04-16T21:22:05.627Z,52.90
2023-04-16T21:24:33.046Z,52.84
2023-04-16T21:27:00.117Z,52.60
2023-04-16T21:29:27.537Z,52.20
2023-04-16T21:31:54.876Z,52.46
2023-04-16T21:34:23.026Z,52.68
2023-04-16T21:37:06.190Z,53.42
2023-04-16T21:39:50.363Z,53.99
2023-04-16T21:42:17.364Z,54.31
2023-04-16T21:44:44.476Z,54.34
2023-04-16T21:47:11.668Z,54.81
2023-04-16T21:49:38.591Z,54.93
2023-04-16T21:52:19.224Z,54.46
2023-04-16T21:54:51.044Z,53.64
2023-04-16T21:57:18.081Z,54.63
2023-04-16T21:59:45.056Z,55.13
2023-04-16T22:02:15.138Z,54.69
2023-04-16T22:04:44.139Z,53.58
2023-04-16T22:07:11.941Z,52.71
2023-04-16T22:09:41.879Z,52.68
2023-04-16T22:12:13.270Z,53.09
2023-04-16T22:14:55.747Z,52.34
2023-04-16T22:17:29.735Z,51.64
2023-04-16T22:19:57.717Z,51.58
2023-04-16T22:22:48.112Z,51.38
2023-04-16T22:25:17.670Z,51.93
2023-04-16T22:27:55.201Z,51.77
2023-04-16T22:30:32.965Z,51.76
2023-04-16T22:33:01.285Z,52.25
2023-04-16T22:35:37.769Z,52.43
2023-04-16T22:38:05.186Z,53.15
2023-04-16T22:40:32.417Z,52.90
2023-04-16T22:42:59.625Z,53.07
2023-04-16T22:45:28.111Z,53.21
2023-04-16T22:48:02.895Z,53.29
2023-04-16T22:50:33.815Z,53.00
2023-04-16T22:53:00.923Z,53.22
2023-04-16T22:55:33.938Z,53.79
2023-04-16T22:58:01.669Z,54.17
2023-04-16T23:00:29.049Z,54.02
2023-04-16T23:03:03.352Z,54.48
2023-04-16T23:05:30.932Z,53.41
2023-04-16T23:07:58.294Z,53.30
2023-04-16T23:10:25.580Z,53.57
2023-04-16T23:12:52.966Z,53.36
2023-04-16T23:15:24.544Z,53.33
2023-04-16T23:17:57.489Z,53.43
2023-04-16T23:20:24.694Z,53.92
2023-04-16T23:22:54.931Z,53.23
2023-04-16T23:25:23.239Z,53.50
2023-04-16T23:27:56.491Z,52.93
2023-04-16T23:30:35.650Z,52.50
2023-04-16T23:33:03.393Z,53.09
2023-04-16T23:35:33.382Z,52.46
2023-04-16T23:38:00.402Z,52.68
2023-04-16T23:40:30.406Z,53.13
2023-04-16T23:43:08.406Z,53.07
2023-04-16T23:45:38.433Z,53.00
2023-04-16T23:48:11.336Z,53.37
2023-04-16T23:50:45.344Z,53.95
2023-04-16T23:53:12.308Z,54.01
2023-04-16T23:55:39.437Z,53.71
2023-04-16T23:58:06.530Z,55.43
